createdAt,value
2023-05-19T00:04:07.708Z,12.57
2023-05-19T00:09:13.377Z,10.95
2023-05-19T00:14:17.923Z,12.13
2023-05-19T00:19:24.536Z,11.20
2023-05-19T00:24:28.671Z,10.80
2023-05-19T00:29:32.094Z,10.18
2023-05-19T00:34:36.905Z,8.88
2023-05-19T00:39:40.664Z,11.15
2023-05-19T00:44:44.216Z,11.77
2023-05-19T00:49:49.340Z,10.02
2023-05-19T00:54:53.525Z,10.32
2023-05-19T00:59:57.532Z,9.32
2023-05-19T01:05:03.484Z,7.57
2023-05-19T01:10:08.219Z,9.43
2023-05-19T01:15:13.815Z,9.55
2023-05-19T01:20:29.133Z,8.35
2023-05-19T01:26:13.712Z,8.30
2023-05-19T01:31:20.631Z,7.88
2023-05-19T01:36:28.021Z,7.80
2023-05-19T01:41:38.632Z,6.97
2023-05-19T01:46:44.405Z,7.40
2023-05-19T01:51:51.622Z,9.33
2023-05-19T01:57:11.741Z,6.68
2023-05-19T02:02:35.768Z,7.90
2023-05-19T02:07:46.679Z,7.63
2023-05-19T02:12:55.090Z,7.47
2023-05-19T02:18:04.592Z,5.65
2023-05-19T02:23:08.277Z,7.78
2023-05-19T02:28:11.803Z,8.05
2023-05-19T02:33:17.379Z,5.95
2023-05-19T02:38:21.552Z,5.43
2023-05-19T02:43:25.006Z,7.55
2023-05-19T02:48:29.806Z,6.65
2023-05-19T02:53:33.883Z,8.38
2023-05-19T02:58:37.317Z,5.25
2023-05-19T03:03:42.302Z,5.65
2023-05-19T03:08:46.049Z,6.47
2023-05-19T03:13:49.594Z,5.80
2023-05-19T03:18:55.615Z,5.18
2023-05-19T03:23:59.267Z,5.30
2023-05-19T03:29:02.723Z,5.85
2023-05-19T03:34:09.952Z,5.35
2023-05-19T03:39:13.818Z,4.70
2023-05-19T03:44:17.879Z,4.95
2023-05-19T03:49:23.026Z,8.52
2023-05-19T03:55:04.829Z,5.30
2023-05-19T04:00:11.245Z,4.38
2023-05-19T04:05:17.862Z,4.43
2023-05-19T04:10:21.650Z,5.22
2023-05-19T04:15:28.021Z,4.30
2023-05-19T04:20:33.504Z,5.90
2023-05-19T04:25:37.442Z,4.07
2023-05-19T04:30:42.546Z,4.22
2023-05-19T04:35:47.396Z,4.78
2023-05-19T04:40:52.821Z,3.92
2023-05-19T04:45:58.163Z,4.22
2023-05-19T04:51:04.075Z,3.65
2023-05-19T04:56:08.479Z,3.75
2023-05-19T05:01:13.879Z,4.47
2023-05-19T05:06:18.820Z,5.05
2023-05-19T05:11:28.227Z,3.75
2023-05-19T05:16:34.132Z,5.18
2023-05-19T05:21:41.482Z,6.38
2023-05-19T05:26:46.925Z,5.57
2023-05-19T05:31:50.431Z,4.35
2023-05-19T05:36:55.848Z,4.55
2023-05-19T05:41:59.473Z,3.78
2023-05-19T05:47:05.422Z,3.97
2023-05-19T05:52:13.634Z,4.43
2023-05-19T05:57:23.149Z,3.75
2023-05-19T06:02:27.764Z,3.17
2023-05-19T06:07:35.063Z,3.23
2023-05-19T06:12:40.663Z,3.22
2023-05-19T06:17:44.795Z,4.47
2023-05-19T06:22:51.158Z,4.05
2023-05-19T06:27:57.042Z,2.50
2023-05-19T06:33:00.960Z,3.88
2023-05-19T06:38:06.271Z,3.53
2023-05-19T06:43:09.871Z,3.67
2023-05-19T06:48:30.662Z,3.28
2023-05-19T06:53:36.922Z,10.55
2023-05-19T06:58:44.407Z,8.77
2023-05-19T07:03:48.943Z,9.25
2023-05-19T07:08:53.942Z,7.68
2023-05-19T07:13:58.222Z,21.67
2023-05-19T07:19:04.944Z,11.82
2023-05-19T07:24:10.909Z,11.32
2023-05-19T07:29:14.470Z,8.02
2023-05-19T07:34:17.884Z,9.32
2023-05-19T07:39:23.566Z,8.75
2023-05-19T07:44:27.188Z,10.43
2023-05-19T07:49:30.689Z,10.00
2023-05-19T07:54:35.451Z,9.20
2023-05-19T07:59:38.952Z,10.32
2023-05-19T08:04:42.725Z,9.05
2023-05-19T08:09:47.604Z,9.57
2023-05-19T08:14:51.189Z,5.57
2023-05-19T08:19:54.708Z,8.70
2023-05-19T08:24:59.876Z,8.38
2023-05-19T08:30:03.415Z,8.27
2023-05-19T08:35:08.440Z,11.27
2023-05-19T08:40:18.849Z,20.00
2023-05-19T08:45:22.348Z,14.63
2023-05-19T08:50:32.359Z,9.95
2023-05-19T08:55:47.891Z,11.48
2023-05-19T09:00:52.235Z,7.90
2023-05-19T09:05:55.819Z,13.63
2023-05-19T09:11:00.679Z,8.60
2023-05-19T09:16:04.912Z,8.02
2023-05-19T09:21:10.321Z,9.30
2023-05-19T09:26:17.121Z,12.65
2023-05-19T09:31:22.573Z,8.75
2023-05-19T09:36:26.035Z,9.60
2023-05-19T09:41:31.215Z,8.98
2023-05-19T09:46:35.946Z,9.85
2023-05-19T09:51:39.479Z,8.85
2023-05-19T09:56:44.307Z,9.20
2023-05-19T10:01:48.547Z,9.05
2023-05-19T10:06:54.400Z,9.68
2023-05-19T10:12:00.687Z,12.20
2023-05-19T10:17:04.589Z,6.95
2023-05-19T10:22:10.816Z,7.95
2023-05-19T10:27:16.725Z,8.82
2023-05-19T10:32:26.236Z,7.28
2023-05-19T10:37:43.119Z,6.40
2023-05-19T10:43:07.447Z,8.60
2023-05-19T10:48:13.345Z,9.10
2023-05-19T10:53:21.036Z,10.63
2023-05-19T11:03:57.315Z,12.43
2023-05-19T11:09:11.491Z,6.35
2023-05-19T11:14:18.693Z,10.27
2023-05-19T11:19:28.692Z,10.48
2023-05-19T11:24:36.988Z,8.25
2023-05-19T11:29:42.656Z,9.65
2023-05-19T11:34:46.726Z,8.75
2023-05-19T11:39:50.803Z,11.00
2023-05-19T11:44:57.957Z,21.77
2023-05-19T11:50:01.805Z,34.97
2023-05-19T11:55:08.587Z,32.90
2023-05-19T12:00:15.684Z,35.55
2023-05-19T12:05:24.963Z,32.63
2023-05-19T12:10:31.413Z,29.35
2023-05-19T12:15:36.534Z,22.80
2023-05-19T12:20:40.157Z,21.55
2023-05-19T12:25:43.739Z,15.15
2023-05-19T12:30:54.462Z,14.20
2023-05-19T12:35:58.355Z,14.73
2023-05-19T12:41:01.791Z,13.30
2023-05-19T12:46:13.521Z,10.75
2023-05-19T12:51:21.113Z,9.00
2023-05-19T12:56:28.109Z,11.48
2023-05-19T13:01:32.992Z,8.95
2023-05-19T13:06:36.524Z,10.85
2023-05-19T13:11:40.420Z,9.25
2023-05-19T13:16:46.243Z,7.05
2023-05-19T13:21:52.425Z,9.93
2023-05-19T13:26:58.164Z,7.05
2023-05-19T13:32:02.938Z,8.05
2023-05-19T13:37:10.016Z,6.32
2023-05-19T13:42:13.983Z,7.00
2023-05-19T13:47:18.853Z,6.45
2023-05-19T13:52:23.133Z,7.15
2023-05-19T13:57:26.893Z,8.80
2023-05-19T14:02:43.140Z,6.85
2023-05-19T14:13:57.526Z,5.50
2023-05-19T14:20:58.096Z,7.93
2023-05-19T14:37:55.353Z,5.28
2023-05-19T14:43:00.555Z,6.03
2023-05-19T14:48:04.074Z,7.10
2023-05-19T14:53:07.548Z,7.63
2023-05-19T14:58:26.971Z,4.60
2023-05-19T15:03:31.526Z,5.47
2023-05-19T15:08:35.005Z,3.38
2023-05-19T15:13:39.837Z,6.40
2023-05-19T15:18:43.249Z,7.30
2023-05-19T15:23:46.991Z,5.65
2023-05-19T15:28:53.589Z,5.95
2023-05-19T15:33:56.985Z,6.35
2023-05-19T15:39:00.522Z,5.90
2023-05-19T15:44:06.782Z,6.75
2023-05-19T15:49:12.961Z,8.25
2023-05-19T15:54:16.685Z,9.23
2023-05-19T15:59:21.460Z,8.10
2023-05-19T16:04:24.890Z,10.02
2023-05-19T16:09:28.346Z,10.02
2023-05-19T16:14:36.353Z,13.32
2023-05-19T16:19:39.795Z,12.38
2023-05-19T16:24:43.665Z,12.45
2023-05-19T16:29:48.828Z,14.30
2023-05-19T16:34:52.445Z,18.00
2023-05-19T16:39:55.963Z,13.18
2023-05-19T16:45:18.613Z,12.07
2023-05-19T16:50:23.425Z,13.48
2023-05-19T16:55:27.178Z,7.57
2023-05-19T17:00:32.474Z,7.88
2023-05-19T17:05:38.205Z,9.05
2023-05-19T17:10:41.674Z,7.07
2023-05-19T17:16:02.277Z,6.22
2023-05-19T17:21:06.373Z,9.10
2023-05-19T17:26:12.046Z,7.57
2023-05-19T17:31:17.116Z,7.22
2023-05-19T17:36:20.606Z,7.22
2023-05-19T17:41:24.079Z,6.57
2023-05-19T17:46:30.256Z,6.18
2023-05-19T17:51:34.319Z,6.22
2023-05-19T17:56:43.607Z,6.18
2023-05-19T18:01:49.173Z,6.28
2023-05-19T18:06:53.983Z,4.78
2023-05-19T18:12:01.952Z,6.28
2023-05-19T18:17:07.225Z,5.40
2023-05-19T18:22:14.859Z,6.97
2023-05-19T18:27:18.273Z,6.35
2023-05-19T18:32:23.123Z,12.77
2023-05-19T18:37:26.627Z,15.00
2023-05-19T18:42:30.134Z,7.05
2023-05-19T18:47:34.998Z,7.55
2023-05-19T18:52:38.464Z,9.50
2023-05-19T18:57:41.886Z,8.02
2023-05-19T19:02:46.865Z,7.22
2023-05-19T19:07:50.333Z,5.43
2023-05-19T19:12:53.838Z,4.88
2023-05-19T19:17:58.669Z,5.28
2023-05-19T19:23:05.089Z,7.25
2023-05-19T19:28:08.544Z,5.30
2023-05-19T19:33:13.403Z,5.13
2023-05-19T19:38:16.918Z,6.68
2023-05-19T19:43:20.604Z,4.38
2023-05-19T19:48:25.531Z,4.90
2023-05-19T19:53:29.094Z,3.65
2023-05-19T19:58:32.509Z,4.07
2023-05-19T20:03:38.166Z,4.38
2023-05-19T20:08:41.687Z,4.93
2023-05-19T20:13:45.155Z,4.50
2023-05-19T20:18:50.573Z,3.85
2023-05-19T20:23:54.106Z,2.90
2023-05-19T20:28:57.567Z,5.15
2023-05-19T20:34:02.417Z,3.67
2023-05-19T20:39:07.015Z,7.45
2023-05-19T20:44:11.651Z,3.38
2023-05-19T20:49:16.682Z,4.40
2023-05-19T20:54:20.623Z,3.58
2023-05-19T20:59:24.171Z,4.38
2023-05-19T21:04:29.042Z,2.75
2023-05-19T21:09:32.506Z,3.50
2023-05-19T21:14:35.946Z,3.45
2023-05-19T21:19:40.810Z,3.85
2023-05-19T21:24:44.186Z,4.20
2023-05-19T21:29:47.722Z,2.80
2023-05-19T21:34:52.558Z,4.18
2023-05-19T21:39:55.967Z,3.38
2023-05-19T21:44:59.397Z,3.70
2023-05-19T21:50:04.450Z,3.13
2023-05-19T21:55:11.075Z,3.83
2023-05-19T22:00:15.995Z,3.80
2023-05-19T22:05:20.831Z,4.78
2023-05-19T22:10:25.572Z,4.97
2023-05-19T22:15:39.771Z,3.13
2023-05-19T22:20:44.648Z,2.95
2023-05-19T22:25:48.105Z,4.65
2023-05-19T22:30:51.492Z,6.88
2023-05-19T22:35:56.254Z,7.15
2023-05-19T22:40:59.706Z,2.90
2023-05-19T22:46:03.154Z,5.13
2023-05-19T22:51:08.102Z,3.92
2023-05-19T22:56:11.519Z,3.05
2023-05-19T23:01:15.025Z,4.03
2023-05-19T23:06:19.878Z,3.20
2023-05-19T23:11:23.291Z,3.40
2023-05-19T23:16:26.719Z,3.67
2023-05-19T23:21:32.477Z,4.28
2023-05-19T23:26:35.942Z,3.20
2023-05-19T23:31:39.480Z,2.85
2023-05-19T23:36:44.293Z,1.83
2023-05-19T23:41:47.711Z,1.50
2023-05-19T23:46:51.388Z,3.15
2023-05-19T23:51:56.310Z,3.60
2023-05-19T23:56:59.755Z,2.20
